METAR Data
IDs: Format: Raw Decoded Include TAF

Data at: 0931 UTC 18 Jan 2022

LFAT 180900Z AUTO 16004KT 1500 1100 R13/2900D BR VV/// 01/01 Q1039 BECMG 9999 NSW BKN025